Shimojishima Airport
RORS : now visible

Airfield :











YOU CAN JOIN US ON...

 
LOGIN :

Register | Disclaimer

   EN    FR    IT 

 









Legend :    VFR   Marginal VFR   IFR   Intensive IFR   Very Intensive IFR
Visi :
Ceiling :
>= 8 km
>= 3000ft
5 to 8 km
1000 to 3000 ft
1500m to 5 km
500 to 1000 ft
800 to 1500m
200 to 500 ft
< 800m
< 200 ft
Symbols :   Thunderstorms  Fog  Heavy snow  Heavy precipitations  Wind > 20 kt






- Airport Elevation : 54 ft
- IATA code : SHI


RORS - Shimojishima

CURRENT METAR :
  • 040800Z 04027KT 9999 -SHRA FEW010 BKN017 BKN045 19/18 Q1016

EXPIRED METARs :
  • 040700Z 03024KT 9999 -SHRA FEW010 SCT025 BKN045 19/18 Q1016
  • 040644Z 03025KT 6000 -SHRA FEW010 SCT025 BKN040 19/19 Q1016 RMK 2CU010 4CU025 6SC040 A3001
  • 040617Z 04024KT 3500 R35/P2000N -SHRA BR FEW010 BKN016 BKN036 19/18 Q1016 RMK 2CU010 5CU016 6SC036 A3000
  • 040600Z 04024G34KT 9999 -SHRA FEW010 BKN017 BKN050 19/19 Q1016

TAF N/A
RJJJ FIR / Asia



MET'MAP, your aeronautical weather chart ! - Copyright ORBIFLY December 2007 - Disclaimer

ORBIFLY MET'MAP TEAM :

Programming & Development : Alexandra Zaïnal
Concept & original design : Baudouin d'Aumeries
Assistance for programming : Marc-Olivier Méhu
Technical & hardware support : Manuel Goepfert

Contact : metmap@orbifly.com




SOURCES & CREDITS :

   NOAA       Earth
Advisory